Terminal Aerodrome Forecast
Issued by NWS Greer, SC

Home | Current Version | Previous Version | Text Only | Print | Product List | Glossary On
Versions: 1 2 3 4 5 6 7 8 9 10 11 12 13 14 15 16 17 18 19 20 21 22 23 24 25 26 27 28 29 30 31 32 33 34 35 36 37 38 39
000
FTUS42 KGSP 300826 AAA
TAFAVL
TAF AMD
KAVL 300826Z 3008/3106 33004KT 2SM BR OVC002
      TEMPO 3008/3012 33004KT 1SM BR VV002
     FM301200 35005KT P6SM VCSH SCT030 BKN120
     FM301500 35006KT P6SM SCT060 BKN150
      TEMPO 3015/3019 4SM TSRA BKN040CB
     FM302000 34009KT P6SM BKN250=

USA.gov is the U.S. government's official web portal to all federal, state and local government web resources and services.